sensor_id;sensor_type;location;lat;lon;timestamp;P1;durP1;ratioP1;P2;durP2;ratioP2
31368;SDS011;18004;48.416;10.066;2024-01-15T00:20:20;10.05;;;5.30;;
31368;SDS011;18004;48.416;10.066;2024-01-15T00:22:57;12.30;;;5.60;;
31368;SDS011;18004;48.416;10.066;2024-01-15T00:25:23;12.25;;;5.22;;
31368;SDS011;18004;48.416;10.066;2024-01-15T00:28:00;9.07;;;4.43;;
31368;SDS011;18004;48.416;10.066;2024-01-15T00:30:46;7.72;;;4.20;;
31368;SDS011;18004;48.416;10.066;2024-01-15T00:33:25;13.38;;;5.22;;
31368;SDS011;18004;48.416;10.066;2024-01-15T00:39:58;9.50;;;4.93;;
31368;SDS011;18004;48.416;10.066;2024-01-15T00:43:13;9.68;;;4.95;;
31368;SDS011;18004;48.416;10.066;2024-01-15T00:45:51;12.18;;;4.95;;
31368;SDS011;18004;48.416;10.066;2024-01-15T00:52:19;9.85;;;4.30;;
31368;SDS011;18004;48.416;10.066;2024-01-15T00:55:20;10.02;;;4.75;;
31368;SDS011;18004;48.416;10.066;2024-01-15T00:58:42;10.73;;;4.57;;
31368;SDS011;18004;48.416;10.066;2024-01-15T01:01:34;10.70;;;4.78;;
31368;SDS011;18004;48.416;10.066;2024-01-15T01:04:26;14.25;;;5.20;;
31368;SDS011;18004;48.416;10.066;2024-01-15T01:07:23;9.70;;;4.65;;
31368;SDS011;18004;48.416;10.066;2024-01-15T01:09:52;11.70;;;4.00;;
31368;SDS011;18004;48.416;10.066;2024-01-15T01:12:29;9.80;;;4.63;;
31368;SDS011;18004;48.416;10.066;2024-01-15T01:14:56;10.23;;;4.38;;
31368;SDS011;18004;48.416;10.066;2024-01-15T01:17:22;9.23;;;4.32;;
31368;SDS011;18004;48.416;10.066;2024-01-15T01:19:49;10.60;;;5.15;;
31368;SDS011;18004;48.416;10.066;2024-01-15T01:22:24;9.05;;;3.85;;
31368;SDS011;18004;48.416;10.066;2024-01-15T01:25:02;7.32;;;3.08;;
31368;SDS011;18004;48.416;10.066;2024-01-15T01:27:51;4.68;;;2.20;;
31368;SDS011;18004;48.416;10.066;2024-01-15T01:34:42;3.53;;;2.20;;
31368;SDS011;18004;48.416;10.066;2024-01-15T01:41:47;6.60;;;2.20;;
31368;SDS011;18004;48.416;10.066;2024-01-15T01:45:49;4.35;;;2.10;;
31368;SDS011;18004;48.416;10.066;2024-01-15T01:52:30;4.88;;;2.03;;
31368;SDS011;18004;48.416;10.066;2024-01-15T01:55:02;11.98;;;2.20;;
31368;SDS011;18004;48.416;10.066;2024-01-15T01:58:15;4.88;;;2.92;;
31368;SDS011;18004;48.416;10.066;2024-01-15T02:01:17;5.57;;;2.88;;
31368;SDS011;18004;48.416;10.066;2024-01-15T02:03:47;6.05;;;2.90;;
31368;SDS011;18004;48.416;10.066;2024-01-15T02:06:14;7.88;;;3.08;;
31368;SDS011;18004;48.416;10.066;2024-01-15T02:08:55;7.20;;;3.30;;
31368;SDS011;18004;48.416;10.066;2024-01-15T02:11:54;10.65;;;3.28;;
31368;SDS011;18004;48.416;10.066;2024-01-15T02:14:43;9.18;;;4.40;;
31368;SDS011;18004;48.416;10.066;2024-01-15T02:24:38;13.02;;;4.35;;
31368;SDS011;18004;48.416;10.066;2024-01-15T02:27:16;10.80;;;3.67;;
31368;SDS011;18004;48.416;10.066;2024-01-15T02:29:55;6.15;;;3.30;;
31368;SDS011;18004;48.416;10.066;2024-01-15T02:36:22;7.05;;;3.60;;
31368;SDS011;18004;48.416;10.066;2024-01-15T02:39:24;10.45;;;3.97;;
31368;SDS011;18004;48.416;10.066;2024-01-15T02:42:51;8.35;;;3.75;;
31368;SDS011;18004;48.416;10.066;2024-01-15T02:45:46;7.68;;;3.90;;
31368;SDS011;18004;48.416;10.066;2024-01-15T02:48:18;9.48;;;4.47;;
31368;SDS011;18004;48.416;10.066;2024-01-15T02:54:12;9.95;;;3.88;;
31368;SDS011;18004;48.416;10.066;2024-01-15T02:57:22;11.27;;;4.55;;
31368;SDS011;18004;48.416;10.066;2024-01-15T03:00:43;11.25;;;4.07;;
31368;SDS011;18004;48.416;10.066;2024-01-15T03:04:31;10.60;;;4.30;;
31368;SDS011;18004;48.416;10.066;2024-01-15T03:07:30;13.85;;;3.80;;
31368;SDS011;18004;48.416;10.066;2024-01-15T03:10:36;8.98;;;4.00;;
31368;SDS011;18004;48.416;10.066;2024-01-15T03:17:31;12.15;;;5.00;;
31368;SDS011;18004;48.416;10.066;2024-01-15T03:23:21;10.18;;;4.28;;
31368;SDS011;18004;48.416;10.066;2024-01-15T03:25:53;7.38;;;3.85;;
31368;SDS011;18004;48.416;10.066;2024-01-15T03:29:28;7.40;;;3.25;;
31368;SDS011;18004;48.416;10.066;2024-01-15T03:32:06;7.40;;;3.95;;
31368;SDS011;18004;48.416;10.066;2024-01-15T03:35:04;6.95;;;3.50;;
31368;SDS011;18004;48.416;10.066;2024-01-15T03:38:00;8.68;;;4.13;;
31368;SDS011;18004;48.416;10.066;2024-01-15T03:40:29;10.30;;;4.10;;
31368;SDS011;18004;48.416;10.066;2024-01-15T03:43:27;8.75;;;4.57;;
31368;SDS011;18004;48.416;10.066;2024-01-15T03:46:01;15.45;;;4.22;;
31368;SDS011;18004;48.416;10.066;2024-01-15T03:48:53;12.15;;;5.70;;
31368;SDS011;18004;48.416;10.066;2024-01-15T03:51:19;15.43;;;6.75;;
31368;SDS011;18004;48.416;10.066;2024-01-15T03:54:07;16.98;;;7.60;;
31368;SDS011;18004;48.416;10.066;2024-01-15T03:56:43;13.27;;;6.53;;
31368;SDS011;18004;48.416;10.066;2024-01-15T03:59:23;20.60;;;6.50;;
31368;SDS011;18004;48.416;10.066;2024-01-15T04:02:15;16.05;;;6.15;;
31368;SDS011;18004;48.416;10.066;2024-01-15T04:05:17;23.73;;;6.10;;
31368;SDS011;18004;48.416;10.066;2024-01-15T04:08:12;15.40;;;6.57;;
31368;SDS011;18004;48.416;10.066;2024-01-15T04:10:39;17.77;;;6.53;;
31368;SDS011;18004;48.416;10.066;2024-01-15T04:13:08;24.98;;;6.85;;
31368;SDS011;18004;48.416;10.066;2024-01-15T04:18:34;9.38;;;4.82;;
31368;SDS011;18004;48.416;10.066;2024-01-15T04:21:50;13.05;;;5.80;;
31368;SDS011;18004;48.416;10.066;2024-01-15T04:27:46;13.45;;;6.07;;
31368;SDS011;18004;48.416;10.066;2024-01-15T04:30:12;12.38;;;5.50;;
31368;SDS011;18004;48.416;10.066;2024-01-15T04:32:38;17.08;;;6.65;;
31368;SDS011;18004;48.416;10.066;2024-01-15T04:35:04;11.80;;;5.63;;
31368;SDS011;18004;48.416;10.066;2024-01-15T04:37:30;20.20;;;6.65;;
31368;SDS011;18004;48.416;10.066;2024-01-15T04:43:20;22.08;;;7.68;;
31368;SDS011;18004;48.416;10.066;2024-01-15T04:46:27;14.55;;;5.63;;
31368;SDS011;18004;48.416;10.066;2024-01-15T04:49:58;14.32;;;5.10;;
31368;SDS011;18004;48.416;10.066;2024-01-15T05:00:15;11.23;;;3.80;;
31368;SDS011;18004;48.416;10.066;2024-01-15T05:10:06;10.32;;;4.78;;
31368;SDS011;18004;48.416;10.066;2024-01-15T05:13:18;12.07;;;5.18;;
31368;SDS011;18004;48.416;10.066;2024-01-15T05:16:07;15.38;;;4.53;;
31368;SDS011;18004;48.416;10.066;2024-01-15T05:33:29;15.20;;;5.03;;
31368;SDS011;18004;48.416;10.066;2024-01-15T05:38:51;7.72;;;3.67;;
31368;SDS011;18004;48.416;10.066;2024-01-15T05:44:39;12.25;;;4.15;;
31368;SDS011;18004;48.416;10.066;2024-01-15T05:47:46;7.53;;;3.65;;
31368;SDS011;18004;48.416;10.066;2024-01-15T06:02:12;9.95;;;3.17;;
31368;SDS011;18004;48.416;10.066;2024-01-15T09:27:39;4.47;;;2.70;;
31368;SDS011;18004;48.416;10.066;2024-01-15T09:30:19;8.00;;;3.60;;
31368;SDS011;18004;48.416;10.066;2024-01-15T09:32:55;5.28;;;2.67;;
31368;SDS011;18004;48.416;10.066;2024-01-15T09:35:26;5.37;;;2.20;;
31368;SDS011;18004;48.416;10.066;2024-01-15T09:38:26;3.00;;;1.60;;
31368;SDS011;18004;48.416;10.066;2024-01-15T09:40:59;2.75;;;1.60;;
31368;SDS011;18004;48.416;10.066;2024-01-15T09:43:37;2.95;;;1.63;;
31368;SDS011;18004;48.416;10.066;2024-01-15T09:46:06;2.60;;;1.45;;
31368;SDS011;18004;48.416;10.066;2024-01-15T09:48:38;3.97;;;1.80;;
31368;SDS011;18004;48.416;10.066;2024-01-15T09:59:08;2.35;;;1.40;;
31368;SDS011;18004;48.416;10.066;2024-01-15T10:33:00;3.30;;;1.15;;
31368;SDS011;18004;48.416;10.066;2024-01-15T10:35:36;3.40;;;1.50;;
31368;SDS011;18004;48.416;10.066;2024-01-15T10:38:16;3.38;;;1.10;;
31368;SDS011;18004;48.416;10.066;2024-01-15T10:40:57;4.38;;;1.65;;
31368;SDS011;18004;48.416;10.066;2024-01-15T10:43:35;3.67;;;1.52;;
31368;SDS011;18004;48.416;10.066;2024-01-15T10:46:17;2.45;;;1.00;;
31368;SDS011;18004;48.416;10.066;2024-01-15T10:48:51;3.15;;;1.65;;
31368;SDS011;18004;48.416;10.066;2024-01-15T10:51:19;3.45;;;1.52;;
31368;SDS011;18004;48.416;10.066;2024-01-15T10:53:55;1.90;;;0.93;;
31368;SDS011;18004;48.416;10.066;2024-01-15T10:56:42;4.72;;;1.65;;
31368;SDS011;18004;48.416;10.066;2024-01-15T10:59:15;4.68;;;2.30;;
31368;SDS011;18004;48.416;10.066;2024-01-15T11:01:54;3.92;;;1.75;;
31368;SDS011;18004;48.416;10.066;2024-01-15T11:04:29;5.22;;;2.38;;
31368;SDS011;18004;48.416;10.066;2024-01-15T11:07:03;18.52;;;4.65;;
31368;SDS011;18004;48.416;10.066;2024-01-15T11:09:39;8.10;;;2.72;;
31368;SDS011;18004;48.416;10.066;2024-01-15T11:12:12;2.10;;;1.30;;
31368;SDS011;18004;48.416;10.066;2024-01-15T11:14:49;2.03;;;1.10;;
31368;SDS011;18004;48.416;10.066;2024-01-15T11:17:19;0.80;;;0.80;;
31368;SDS011;18004;48.416;10.066;2024-01-15T11:19:54;3.20;;;0.73;;
31368;SDS011;18004;48.416;10.066;2024-01-15T11:27:23;6.63;;;1.10;;
31368;SDS011;18004;48.416;10.066;2024-01-15T11:42:30;0.50;;;0.50;;
31368;SDS011;18004;48.416;10.066;2024-01-15T11:45:05;1.40;;;0.75;;
31368;SDS011;18004;48.416;10.066;2024-01-15T11:52:11;1.10;;;0.93;;
31368;SDS011;18004;48.416;10.066;2024-01-15T12:19:09;0.25;;;0.20;;
31368;SDS011;18004;48.416;10.066;2024-01-15T12:22:27;2.83;;;0.98;;
31368;SDS011;18004;48.416;10.066;2024-01-15T12:25:40;0.68;;;0.63;;
31368;SDS011;18004;48.416;10.066;2024-01-15T12:28:15;3.80;;;0.80;;
31368;SDS011;18004;48.416;10.066;2024-01-15T12:30:42;1.38;;;0.70;;
31368;SDS011;18004;48.416;10.066;2024-01-15T12:33:19;2.55;;;0.80;;
31368;SDS011;18004;48.416;10.066;2024-01-15T12:36:30;1.55;;;1.00;;
31368;SDS011;18004;48.416;10.066;2024-01-15T12:39:05;1.75;;;0.90;;
31368;SDS011;18004;48.416;10.066;2024-01-15T12:42:00;1.77;;;0.70;;
31368;SDS011;18004;48.416;10.066;2024-01-15T12:45:12;5.15;;;1.00;;
31368;SDS011;18004;48.416;10.066;2024-01-15T12:47:45;2.15;;;0.80;;
31368;SDS011;18004;48.416;10.066;2024-01-15T12:51:24;7.05;;;3.15;;
31368;SDS011;18004;48.416;10.066;2024-01-15T12:54:02;1.50;;;0.88;;
31368;SDS011;18004;48.416;10.066;2024-01-15T13:12:16;0.68;;;0.65;;
31368;SDS011;18004;48.416;10.066;2024-01-15T13:20:08;3.00;;;0.82;;
31368;SDS011;18004;48.416;10.066;2024-01-15T14:03:14;7.13;;;1.70;;
31368;SDS011;18004;48.416;10.066;2024-01-15T14:25:53;2.55;;;0.90;;
31368;SDS011;18004;48.416;10.066;2024-01-15T14:39:06;1.42;;;0.85;;
31368;SDS011;18004;48.416;10.066;2024-01-15T14:42:04;2.78;;;1.48;;
31368;SDS011;18004;48.416;10.066;2024-01-15T14:45:23;2.03;;;0.90;;
31368;SDS011;18004;48.416;10.066;2024-01-15T14:47:58;7.55;;;1.55;;
31368;SDS011;18004;48.416;10.066;2024-01-15T14:53:43;2.75;;;1.45;;
31368;SDS011;18004;48.416;10.066;2024-01-15T15:09:06;3.78;;;1.35;;
31368;SDS011;18004;48.416;10.066;2024-01-15T15:12:38;2.10;;;1.60;;
31368;SDS011;18004;48.416;10.066;2024-01-15T15:18:44;10.30;;;3.72;;
31368;SDS011;18004;48.416;10.066;2024-01-15T15:21:28;4.50;;;2.25;;
31368;SDS011;18004;48.416;10.066;2024-01-15T15:24:27;4.65;;;2.35;;
31368;SDS011;18004;48.416;10.066;2024-01-15T15:31:32;1.60;;;1.30;;
31368;SDS011;18004;48.416;10.066;2024-01-15T15:51:09;4.05;;;2.35;;
31368;SDS011;18004;48.416;10.066;2024-01-15T15:53:45;6.95;;;2.25;;
31368;SDS011;18004;48.416;10.066;2024-01-15T16:00:14;6.20;;;2.13;;
31368;SDS011;18004;48.416;10.066;2024-01-15T16:07:41;1.73;;;1.00;;
31368;SDS011;18004;48.416;10.066;2024-01-15T16:50:09;2.08;;;1.40;;
31368;SDS011;18004;48.416;10.066;2024-01-15T18:02:07;3.03;;;1.20;;
31368;SDS011;18004;48.416;10.066;2024-01-15T18:05:39;1.48;;;1.10;;
31368;SDS011;18004;48.416;10.066;2024-01-15T18:12:47;2.75;;;1.38;;
31368;SDS011;18004;48.416;10.066;2024-01-15T18:16:13;3.88;;;1.30;;
31368;SDS011;18004;48.416;10.066;2024-01-15T18:19:07;4.55;;;1.77;;
31368;SDS011;18004;48.416;10.066;2024-01-15T18:33:06;3.90;;;1.20;;
31368;SDS011;18004;48.416;10.066;2024-01-15T18:47:30;3.85;;;1.42;;
31368;SDS011;18004;48.416;10.066;2024-01-15T18:55:05;5.70;;;3.28;;
31368;SDS011;18004;48.416;10.066;2024-01-15T18:58:06;4.75;;;2.53;;
31368;SDS011;18004;48.416;10.066;2024-01-15T19:09:28;3.28;;;1.75;;
31368;SDS011;18004;48.416;10.066;2024-01-15T19:24:02;3.80;;;1.83;;
31368;SDS011;18004;48.416;10.066;2024-01-15T19:26:56;2.80;;;1.60;;
31368;SDS011;18004;48.416;10.066;2024-01-15T19:34:38;2.35;;;1.50;;
31368;SDS011;18004;48.416;10.066;2024-01-15T19:38:19;2.90;;;1.52;;
31368;SDS011;18004;48.416;10.066;2024-01-15T19:49:02;6.20;;;1.83;;
31368;SDS011;18004;48.416;10.066;2024-01-15T19:52:15;3.63;;;1.48;;
31368;SDS011;18004;48.416;10.066;2024-01-15T20:06:25;3.95;;;2.20;;
31368;SDS011;18004;48.416;10.066;2024-01-15T20:09:26;5.10;;;2.78;;
31368;SDS011;18004;48.416;10.066;2024-01-15T20:23:21;25.83;;;8.45;;
31368;SDS011;18004;48.416;10.066;2024-01-15T20:25:57;9.00;;;2.80;;
31368;SDS011;18004;48.416;10.066;2024-01-15T20:28:56;12.02;;;5.15;;
31368;SDS011;18004;48.416;10.066;2024-01-15T20:31:43;8.38;;;4.10;;
31368;SDS011;18004;48.416;10.066;2024-01-15T20:35:01;10.07;;;3.88;;
31368;SDS011;18004;48.416;10.066;2024-01-15T20:38:32;4.80;;;2.83;;
31368;SDS011;18004;48.416;10.066;2024-01-15T20:41:19;9.70;;;3.40;;
31368;SDS011;18004;48.416;10.066;2024-01-15T20:44:21;9.55;;;3.35;;
31368;SDS011;18004;48.416;10.066;2024-01-15T20:47:12;4.18;;;2.10;;
31368;SDS011;18004;48.416;10.066;2024-01-15T21:05:28;3.83;;;1.38;;
31368;SDS011;18004;48.416;10.066;2024-01-15T21:07:53;3.15;;;1.60;;
31368;SDS011;18004;48.416;10.066;2024-01-15T21:14:42;2.08;;;1.42;;
31368;SDS011;18004;48.416;10.066;2024-01-15T21:21:56;7.38;;;3.28;;
31368;SDS011;18004;48.416;10.066;2024-01-15T21:35:16;9.68;;;2.53;;
31368;SDS011;18004;48.416;10.066;2024-01-15T21:38:02;3.90;;;1.83;;
31368;SDS011;18004;48.416;10.066;2024-01-15T21:40:35;2.38;;;1.55;;
31368;SDS011;18004;48.416;10.066;2024-01-15T21:43:14;9.23;;;1.98;;
31368;SDS011;18004;48.416;10.066;2024-01-15T21:45:40;4.85;;;1.70;;
31368;SDS011;18004;48.416;10.066;2024-01-15T21:48:31;7.80;;;1.67;;
31368;SDS011;18004;48.416;10.066;2024-01-15T21:51:00;3.72;;;1.90;;
31368;SDS011;18004;48.416;10.066;2024-01-15T21:53:54;8.55;;;3.20;;
31368;SDS011;18004;48.416;10.066;2024-01-15T21:56:40;11.35;;;3.38;;
31368;SDS011;18004;48.416;10.066;2024-01-15T21:59:06;7.18;;;1.85;;
31368;SDS011;18004;48.416;10.066;2024-01-15T22:01:33;2.13;;;1.30;;
31368;SDS011;18004;48.416;10.066;2024-01-15T22:04:10;2.42;;;1.58;;
31368;SDS011;18004;48.416;10.066;2024-01-15T22:06:57;2.55;;;1.52;;
31368;SDS011;18004;48.416;10.066;2024-01-15T22:09:23;3.95;;;2.42;;
31368;SDS011;18004;48.416;10.066;2024-01-15T22:11:56;4.18;;;2.08;;
31368;SDS011;18004;48.416;10.066;2024-01-15T22:14:33;2.97;;;1.77;;
31368;SDS011;18004;48.416;10.066;2024-01-15T22:17:08;4.03;;;1.70;;
31368;SDS011;18004;48.416;10.066;2024-01-15T22:19:41;2.00;;;1.08;;
31368;SDS011;18004;48.416;10.066;2024-01-15T22:22:13;2.35;;;1.50;;
31368;SDS011;18004;48.416;10.066;2024-01-15T22:25:00;5.90;;;1.98;;
31368;SDS011;18004;48.416;10.066;2024-01-15T22:27:58;11.00;;;2.47;;
31368;SDS011;18004;48.416;10.066;2024-01-15T22:30:46;13.30;;;3.03;;
31368;SDS011;18004;48.416;10.066;2024-01-15T22:33:22;11.65;;;1.90;;
31368;SDS011;18004;48.416;10.066;2024-01-15T22:36:26;7.57;;;4.15;;
31368;SDS011;18004;48.416;10.066;2024-01-15T22:39:10;10.20;;;5.10;;
31368;SDS011;18004;48.416;10.066;2024-01-15T22:42:14;9.52;;;4.72;;
31368;SDS011;18004;48.416;10.066;2024-01-15T22:48:51;5.47;;;2.47;;
31368;SDS011;18004;48.416;10.066;2024-01-15T22:51:41;3.75;;;2.08;;
31368;SDS011;18004;48.416;10.066;2024-01-15T22:54:09;3.58;;;1.88;;
31368;SDS011;18004;48.416;10.066;2024-01-15T22:56:36;4.00;;;2.00;;
31368;SDS011;18004;48.416;10.066;2024-01-15T22:59:07;3.00;;;1.63;;
31368;SDS011;18004;48.416;10.066;2024-01-15T23:01:52;3.25;;;1.52;;
31368;SDS011;18004;48.416;10.066;2024-01-15T23:04:26;5.30;;;2.10;;
31368;SDS011;18004;48.416;10.066;2024-01-15T23:06:52;3.10;;;1.73;;
31368;SDS011;18004;48.416;10.066;2024-01-15T23:09:18;2.75;;;1.50;;
31368;SDS011;18004;48.416;10.066;2024-01-15T23:11:47;2.13;;;1.67;;
31368;SDS011;18004;48.416;10.066;2024-01-15T23:14:13;3.50;;;1.42;;
31368;SDS011;18004;48.416;10.066;2024-01-15T23:16:39;2.53;;;1.33;;
31368;SDS011;18004;48.416;10.066;2024-01-15T23:19:05;3.35;;;1.20;;
31368;SDS011;18004;48.416;10.066;2024-01-15T23:21:31;4.20;;;1.20;;
31368;SDS011;18004;48.416;10.066;2024-01-15T23:23:57;3.33;;;1.60;;
31368;SDS011;18004;48.416;10.066;2024-01-15T23:26:23;2.80;;;1.25;;
31368;SDS011;18004;48.416;10.066;2024-01-15T23:28:49;6.38;;;1.65;;
31368;SDS011;18004;48.416;10.066;2024-01-15T23:31:15;2.75;;;1.45;;
31368;SDS011;18004;48.416;10.066;2024-01-15T23:33:41;3.15;;;1.65;;
31368;SDS011;18004;48.416;10.066;2024-01-15T23:45:50;2.53;;;1.17;;
31368;SDS011;18004;48.416;10.066;2024-01-15T23:49:07;1.73;;;1.40;;
31368;SDS011;18004;48.416;10.066;2024-01-15T23:52:45;1.23;;;0.93;;
31368;SDS011;18004;48.416;10.066;2024-01-15T23:55:20;2.70;;;1.45;;
31368;SDS011;18004;48.416;10.066;2024-01-15T23:58:22;4.70;;;1.38;;
